Parkland, Pennsylvania
Current Conditions -  °F | °C
As of 11:54 PM on Thursday 30 Oct 2014 (Local Time) from KPNE Reporting Station
Clear Clear  
Wind Chill: 42°   Ceiling: Unl
Heat Index: 42°   Visibility: 10mi
Dew Point: 33°   Wind: 0mph
Humidity: 70%   Direction: NA
Pressure: 30.05"   Gusts: NA
Location:  40.1816°N, 74.9144°W
Report Text: KPNE 310354Z AUTO 00000KT 10SM CLR 06/01 A3005 RMK AO2 SLP175 T00560006 TSNO $
Loading
Personal Weather Stations






























Interactive Weather Map
Tropical Storm Tracking
New forecast layout! Learn more

10-Day Weather Forecast

Advertisements
Track Severe Weather on mobile